WMT13DU LROP-LUKK
Flight info
| Callsign | WMT13DU |
|---|---|
| Flight time | 0h 34m |
| Altitude | 29000 |
| Route | DENAK DCT URELA DCT FOCSA DCT KENUX DCT BCU DCT BUSES |
| Aircraft | A321/M-SDE1E2E3FGIJ1J4RWXY/LB1 |
Departure
| Time | 2026-05-05 15:56 |
|---|---|
| Airport | Bucharest Henri Coandă International Airport (LROP) |
Arrival
| Time | 2026-05-05 16:30 |
|---|---|
| Airport | Chişinău International Airport (LUKK) |
| Time | Latitude | Longitude | Altitude | Speed | Heading |
|---|---|---|---|---|---|
| 2026-05-05 15:35 | 44.57025 | 26.08198 | 320 ft | 0 kts | 353° |
| 2026-05-05 15:39 | 44.57018 | 26.08199 | 320 ft | 4 kts | 353° |
| 2026-05-05 15:39 | 44.56996 | 26.08202 | 320 ft | 3 kts | 353° |
| 2026-05-05 15:40 | 44.56970 | 26.08207 | 320 ft | 4 kts | 358° |
| 2026-05-05 15:40 | 44.56947 | 26.08203 | 317 ft | 4 kts | 53° |
| 2026-05-05 15:40 | 44.56942 | 26.08174 | 318 ft | 4 kts | 83° |
| 2026-05-05 15:40 | 44.56941 | 26.08164 | 319 ft | 0 kts | 83° |
| 2026-05-05 15:46 | 44.56942 | 26.08171 | 318 ft | 3 kts | 83° |
| 2026-05-05 15:46 | 44.56947 | 26.08231 | 320 ft | 9 kts | 83° |
| 2026-05-05 15:47 | 44.56949 | 26.08351 | 320 ft | 15 kts | 110° |
| 2026-05-05 15:47 | 44.56908 | 26.08442 | 320 ft | 18 kts | 109° |
| 2026-05-05 15:47 | 44.56974 | 26.08545 | 320 ft | 14 kts | 349° |
| 2026-05-05 15:47 | 44.57120 | 26.08520 | 321 ft | 25 kts | 354° |
| 2026-05-05 15:48 | 44.57296 | 26.08494 | 321 ft | 26 kts | 354° |
| 2026-05-05 15:48 | 44.57472 | 26.08493 | 321 ft | 25 kts | 35° |
| 2026-05-05 15:48 | 44.57513 | 26.08717 | 320 ft | 25 kts | 83° |
| 2026-05-05 15:48 | 44.57530 | 26.08959 | 321 ft | 25 kts | 84° |
| 2026-05-05 15:49 | 44.57549 | 26.09207 | 320 ft | 26 kts | 84° |
| 2026-05-05 15:49 | 44.57568 | 26.09461 | 321 ft | 26 kts | 84° |
| 2026-05-05 15:49 | 44.57588 | 26.09720 | 321 ft | 27 kts | 84° |
| 2026-05-05 15:49 | 44.57607 | 26.09984 | 321 ft | 27 kts | 84° |
| 2026-05-05 15:50 | 44.57627 | 26.10252 | 321 ft | 28 kts | 83° |
| 2026-05-05 15:50 | 44.57649 | 26.10525 | 321 ft | 28 kts | 84° |
| 2026-05-05 15:50 | 44.57669 | 26.10794 | 320 ft | 28 kts | 84° |
| 2026-05-05 15:50 | 44.57689 | 26.11066 | 321 ft | 28 kts | 83° |
| 2026-05-05 15:51 | 44.57711 | 26.11348 | 321 ft | 29 kts | 84° |
| 2026-05-05 15:51 | 44.57731 | 26.11610 | 321 ft | 27 kts | 84° |
| 2026-05-05 15:51 | 44.57751 | 26.11874 | 321 ft | 28 kts | 84° |
| 2026-05-05 15:51 | 44.57772 | 26.12145 | 321 ft | 28 kts | 83° |
| 2026-05-05 15:52 | 44.57792 | 26.12420 | 321 ft | 29 kts | 84° |
| 2026-05-05 15:52 | 44.57811 | 26.12706 | 321 ft | 30 kts | 85° |
| 2026-05-05 15:52 | 44.57821 | 26.12815 | 321 ft | 0 kts | 73° |
| 2026-05-05 15:53 | 44.57834 | 26.12841 | 319 ft | 6 kts | 47° |
| 2026-05-05 15:53 | 44.57872 | 26.12858 | 320 ft | 0 kts | 346° |
| 2026-05-05 15:53 | 44.57875 | 26.12857 | 320 ft | 2 kts | 344° |
| 2026-05-05 15:54 | 44.57926 | 26.12813 | 320 ft | 15 kts | 322° |
| 2026-05-05 15:54 | 44.57987 | 26.12695 | 318 ft | 14 kts | 267° |
| 2026-05-05 15:54 | 44.57986 | 26.12683 | 320 ft | 0 kts | 263° |
| 2026-05-05 15:55 | 44.57984 | 26.12669 | 320 ft | 7 kts | 263° |
| 2026-05-05 15:55 | 44.57954 | 26.12274 | 321 ft | 79 kts | 264° |
| 2026-05-05 15:55 | 44.57872 | 26.11189 | 320 ft | 142 kts | 264° |
| 2026-05-05 15:56 | 44.57751 | 26.09604 | 511 ft | 174 kts | 263° |
| 2026-05-05 15:56 | 44.57628 | 26.07899 | 1190 ft | 176 kts | 262° |
| 2026-05-05 15:56 | 44.57551 | 26.06146 | 1793 ft | 185 kts | 275° |
| 2026-05-05 15:56 | 44.58116 | 26.04523 | 2463 ft | 191 kts | 311° |
| 2026-05-05 15:57 | 44.59254 | 26.03590 | 3051 ft | 194 kts | 346° |
| 2026-05-05 15:57 | 44.60595 | 26.03645 | 3627 ft | 196 kts | 17° |
| 2026-05-05 15:57 | 44.61800 | 26.04535 | 4229 ft | 196 kts | 30° |
| 2026-05-05 15:57 | 44.62984 | 26.05540 | 4708 ft | 202 kts | 30° |
| 2026-05-05 15:58 | 44.64199 | 26.06576 | 5166 ft | 206 kts | 30° |
| 2026-05-05 15:58 | 44.65447 | 26.07641 | 5601 ft | 214 kts | 30° |
| 2026-05-05 15:58 | 44.66744 | 26.08745 | 6067 ft | 221 kts | 30° |
| 2026-05-05 15:58 | 44.68080 | 26.09885 | 6509 ft | 230 kts | 30° |
| 2026-05-05 15:59 | 44.69480 | 26.11080 | 6950 ft | 240 kts | 30° |
| 2026-05-05 15:59 | 44.70926 | 26.12312 | 7401 ft | 245 kts | 30° |
| 2026-05-05 15:59 | 44.72427 | 26.13592 | 7838 ft | 261 kts | 30° |
| 2026-05-05 15:59 | 44.73997 | 26.15017 | 8304 ft | 276 kts | 33° |
| 2026-05-05 16:00 | 44.75593 | 26.16656 | 8770 ft | 292 kts | 35° |
| 2026-05-05 16:00 | 44.77249 | 26.18433 | 9247 ft | 306 kts | 36° |
| 2026-05-05 16:00 | 44.78973 | 26.20312 | 9728 ft | 320 kts | 36° |
| 2026-05-05 16:00 | 44.80768 | 26.22271 | 10181 ft | 333 kts | 36° |
| 2026-05-05 16:01 | 44.82629 | 26.24301 | 10634 ft | 343 kts | 36° |
| 2026-05-05 16:01 | 44.84524 | 26.26365 | 11309 ft | 346 kts | 36° |
| 2026-05-05 16:01 | 44.86439 | 26.28445 | 12047 ft | 348 kts | 36° |
| 2026-05-05 16:01 | 44.88368 | 26.30536 | 12794 ft | 350 kts | 36° |
| 2026-05-05 16:02 | 44.90307 | 26.32635 | 13526 ft | 352 kts | 37° |
| 2026-05-05 16:02 | 44.92257 | 26.34748 | 14204 ft | 355 kts | 37° |
| 2026-05-05 16:02 | 44.94219 | 26.36882 | 14815 ft | 358 kts | 37° |
| 2026-05-05 16:02 | 44.96182 | 26.39019 | 15415 ft | 362 kts | 37° |
| 2026-05-05 16:03 | 44.98190 | 26.41205 | 16005 ft | 367 kts | 37° |
| 2026-05-05 16:03 | 45.00219 | 26.43413 | 16601 ft | 371 kts | 37° |
| 2026-05-05 16:03 | 45.02274 | 26.45651 | 17200 ft | 375 kts | 37° |
| 2026-05-05 16:03 | 45.04350 | 26.47912 | 17782 ft | 379 kts | 37° |
| 2026-05-05 16:04 | 45.06449 | 26.50203 | 18366 ft | 383 kts | 37° |
| 2026-05-05 16:04 | 45.08563 | 26.52516 | 18880 ft | 387 kts | 37° |
| 2026-05-05 16:04 | 45.10699 | 26.54856 | 19397 ft | 390 kts | 37° |
| 2026-05-05 16:04 | 45.12852 | 26.57217 | 19912 ft | 393 kts | 37° |
| 2026-05-05 16:05 | 45.15019 | 26.59591 | 20414 ft | 396 kts | 37° |
| 2026-05-05 16:05 | 45.17204 | 26.61984 | 20922 ft | 399 kts | 37° |
| 2026-05-05 16:05 | 45.19405 | 26.64397 | 21419 ft | 402 kts | 37° |
| 2026-05-05 16:05 | 45.21624 | 26.66830 | 21892 ft | 405 kts | 37° |
| 2026-05-05 16:06 | 45.23854 | 26.69286 | 22365 ft | 407 kts | 38° |
| 2026-05-05 16:06 | 45.26100 | 26.71764 | 22833 ft | 410 kts | 38° |
| 2026-05-05 16:06 | 45.28359 | 26.74260 | 23283 ft | 413 kts | 37° |
| 2026-05-05 16:06 | 45.30638 | 26.76771 | 23702 ft | 416 kts | 37° |
| 2026-05-05 16:07 | 45.32932 | 26.79301 | 24077 ft | 419 kts | 37° |
| 2026-05-05 16:07 | 45.35241 | 26.81851 | 24461 ft | 421 kts | 37° |
| 2026-05-05 16:07 | 45.37564 | 26.84421 | 24852 ft | 424 kts | 37° |
| 2026-05-05 16:07 | 45.39892 | 26.87006 | 25243 ft | 426 kts | 38° |
| 2026-05-05 16:08 | 45.42233 | 26.89606 | 25640 ft | 428 kts | 37° |
| 2026-05-05 16:08 | 45.44584 | 26.92218 | 25999 ft | 430 kts | 37° |
| 2026-05-05 16:08 | 45.46947 | 26.94846 | 26348 ft | 432 kts | 37° |
| 2026-05-05 16:08 | 45.49320 | 26.97486 | 26793 ft | 432 kts | 37° |
| 2026-05-05 16:09 | 45.51688 | 27.00125 | 27280 ft | 431 kts | 37° |
| 2026-05-05 16:09 | 45.54047 | 27.02761 | 27763 ft | 431 kts | 37° |
| 2026-05-05 16:09 | 45.56404 | 27.05396 | 28247 ft | 430 kts | 37° |
| 2026-05-05 16:09 | 45.58754 | 27.08025 | 28706 ft | 429 kts | 37° |
| 2026-05-05 16:10 | 45.60314 | 27.09773 | 28933 ft | 430 kts | 37° |
| 2026-05-05 16:10 | 45.65014 | 27.15041 | 29009 ft | 429 kts | 37° |
| 2026-05-05 16:11 | 45.69713 | 27.20310 | 29005 ft | 429 kts | 37° |
| 2026-05-05 16:12 | 45.79075 | 27.30851 | 29003 ft | 427 kts | 37° |
| 2026-05-05 16:12 | 45.83723 | 27.36107 | 27998 ft | 425 kts | 38° |
| 2026-05-05 16:13 | 45.90759 | 27.44103 | 25366 ft | 442 kts | 38° |
| 2026-05-05 16:13 | 45.93178 | 27.46852 | 24514 ft | 443 kts | 38° |
| 2026-05-05 16:13 | 45.95593 | 27.49601 | 23684 ft | 442 kts | 38° |
| 2026-05-05 16:14 | 46.00401 | 27.55077 | 21903 ft | 437 kts | 38° |
| 2026-05-05 16:14 | 46.05113 | 27.60455 | 20345 ft | 428 kts | 38° |
| 2026-05-05 16:15 | 46.09723 | 27.65731 | 18841 ft | 419 kts | 38° |
| 2026-05-05 16:15 | 46.14236 | 27.70904 | 17246 ft | 410 kts | 38° |
| 2026-05-05 16:16 | 46.18652 | 27.75974 | 15740 ft | 401 kts | 38° |
| 2026-05-05 16:16 | 46.22972 | 27.80946 | 14372 ft | 393 kts | 38° |
| 2026-05-05 16:17 | 46.27204 | 27.85828 | 13074 ft | 386 kts | 38° |
| 2026-05-05 16:17 | 46.29292 | 27.88243 | 12394 ft | 382 kts | 38° |
| 2026-05-05 16:18 | 46.33400 | 27.93003 | 11166 ft | 375 kts | 38° |
| 2026-05-05 16:18 | 46.35442 | 27.95374 | 10988 ft | 377 kts | 38° |
| 2026-05-05 16:18 | 46.39518 | 28.00106 | 10194 ft | 373 kts | 38° |
| 2026-05-05 16:19 | 46.41541 | 28.02461 | 9755 ft | 372 kts | 38° |
| 2026-05-05 16:19 | 46.43548 | 28.04801 | 9279 ft | 369 kts | 38° |
| 2026-05-05 16:19 | 46.47538 | 28.09454 | 8997 ft | 368 kts | 38° |
| 2026-05-05 16:20 | 46.51540 | 28.14118 | 8995 ft | 369 kts | 38° |
| 2026-05-05 16:20 | 46.55534 | 28.18792 | 8986 ft | 369 kts | 38° |
| 2026-05-05 16:21 | 46.59498 | 28.23443 | 8590 ft | 367 kts | 39° |
| 2026-05-05 16:22 | 46.65415 | 28.30399 | 7228 ft | 363 kts | 39° |
| 2026-05-05 16:22 | 46.69256 | 28.34927 | 6349 ft | 346 kts | 39° |
| 2026-05-05 16:23 | 46.72908 | 28.39231 | 5442 ft | 330 kts | 39° |
| 2026-05-05 16:23 | 46.74675 | 28.41321 | 4992 ft | 324 kts | 39° |
| 2026-05-05 16:23 | 46.78127 | 28.45415 | 4085 ft | 316 kts | 39° |
| 2026-05-05 16:24 | 46.79824 | 28.47428 | 3641 ft | 313 kts | 39° |
| 2026-05-05 16:24 | 46.81494 | 28.49409 | 3189 ft | 302 kts | 40° |
| 2026-05-05 16:24 | 46.84536 | 28.53016 | 2502 ft | 259 kts | 40° |
| 2026-05-05 16:25 | 46.85851 | 28.54578 | 2506 ft | 227 kts | 40° |
| 2026-05-05 16:25 | 46.88220 | 28.57401 | 2538 ft | 215 kts | 40° |
| 2026-05-05 16:25 | 46.89372 | 28.58774 | 2500 ft | 214 kts | 41° |
| 2026-05-05 16:26 | 46.91546 | 28.61699 | 2502 ft | 212 kts | 58° |
| 2026-05-05 16:26 | 46.92186 | 28.65794 | 2504 ft | 208 kts | 90° |
| 2026-05-05 16:27 | 46.92233 | 28.67912 | 2503 ft | 208 kts | 89° |
| 2026-05-05 16:27 | 46.92280 | 28.70026 | 2509 ft | 208 kts | 89° |
| 2026-05-05 16:27 | 46.92328 | 28.72141 | 2514 ft | 208 kts | 89° |
| 2026-05-05 16:27 | 46.92375 | 28.74269 | 2492 ft | 211 kts | 90° |
| 2026-05-05 16:28 | 46.92423 | 28.76405 | 2302 ft | 209 kts | 90° |
| 2026-05-05 16:28 | 46.92468 | 28.78433 | 2089 ft | 193 kts | 90° |
| 2026-05-05 16:28 | 46.92510 | 28.80362 | 1821 ft | 187 kts | 90° |
| 2026-05-05 16:28 | 46.92551 | 28.82238 | 1566 ft | 176 kts | 90° |
| 2026-05-05 16:29 | 46.92588 | 28.83902 | 1345 ft | 155 kts | 89° |
| 2026-05-05 16:29 | 46.92620 | 28.85431 | 1146 ft | 147 kts | 91° |
| 2026-05-05 16:29 | 46.92651 | 28.86907 | 956 ft | 143 kts | 91° |
| 2026-05-05 16:29 | 46.92681 | 28.88350 | 768 ft | 143 kts | 90° |
| 2026-05-05 16:30 | 46.92718 | 28.89798 | 570 ft | 142 kts | 91° |
| 2026-05-05 16:30 | 46.92745 | 28.91232 | 410 ft | 138 kts | 91° |
| 2026-05-05 16:30 | 46.92762 | 28.92336 | 408 ft | 68 kts | 88° |
| 2026-05-05 16:30 | 46.92773 | 28.92775 | 408 ft | 37 kts | 89° |
| 2026-05-05 16:31 | 46.92778 | 28.93141 | 408 ft | 35 kts | 86° |
| 2026-05-05 16:31 | 46.92807 | 28.93412 | 407 ft | 18 kts | 43° |
| 2026-05-05 16:31 | 46.92916 | 28.93418 | 409 ft | 17 kts | 355° |
| 2026-05-05 16:31 | 46.93035 | 28.93423 | 409 ft | 18 kts | 8° |
| 2026-05-05 16:32 | 46.93156 | 28.93444 | 411 ft | 18 kts | 7° |
| 2026-05-05 16:32 | 46.93289 | 28.93469 | 408 ft | 20 kts | 7° |
| 2026-05-05 16:32 | 46.93328 | 28.93513 | 408 ft | 5 kts | 96° |
| 2026-05-05 16:32 | 46.93352 | 28.93541 | 408 ft | 6 kts | 13° |
| 2026-05-05 16:33 | 46.93375 | 28.93546 | 405 ft | 0 kts | 7° |
| 2026-05-05 16:33 | 46.93376 | 28.93546 | 405 ft | 0 kts | 7° |